TimeMST,TemperatureF,Dew PointF,Humidity,Sea Level PressureIn,VisibilityMPH,Wind Direction,Wind SpeedMPH,Gust SpeedMPH,PrecipitationIn,Events,Conditions,WindDirDegrees,DateUTC
12:54 AM,33.1,26.1,75,30.16,10.0,WSW,9.2,-,N/A,,Mostly Cloudy,250,2012-11-13 07:54:00
1:54 AM,33.1,26.1,75,30.16,10.0,West,12.7,-,N/A,,Overcast,260,2012-11-13 08:54:00
2:54 AM,33.1,26.1,75,30.17,10.0,West,11.5,-,N/A,,Mostly Cloudy,270,2012-11-13 09:54:00
3:54 AM,30.9,24.1,76,30.17,10.0,West,10.4,-,N/A,,Mostly Cloudy,270,2012-11-13 10:54:00
4:54 AM,34.0,26.1,73,30.17,10.0,West,18.4,-,N/A,,Overcast,260,2012-11-13 11:54:00
5:54 AM,32.0,26.1,79,30.19,10.0,SW,15.0,-,N/A,,Overcast,230,2012-11-13 12:54:00
6:54 AM,32.0,25.0,75,30.20,10.0,SW,8.1,-,N/A,,Overcast,220,2012-11-13 13:54:00
7:54 AM,32.0,24.1,73,30.20,10.0,West,6.9,-,N/A,,Overcast,280,2012-11-13 14:54:00
8:54 AM,34.0,23.0,64,30.21,10.0,Calm,Calm,-,N/A,,Clear,0,2012-11-13 15:54:00
9:54 AM,32.0,24.1,73,30.22,10.0,WSW,8.1,-,N/A,,Clear,240,2012-11-13 16:54:00
10:54 AM,36.0,25.0,64,30.21,10.0,Calm,Calm,-,N/A,,Clear,0,2012-11-13 17:54:00
11:54 AM,35.1,25.0,67,30.19,10.0,SW,10.4,-,N/A,,Clear,230,2012-11-13 18:54:00
12:54 PM,37.0,27.0,67,30.18,10.0,SW,3.5,-,N/A,,Clear,220,2012-11-13 19:54:00
1:54 PM,36.0,27.0,70,30.17,10.0,SW,6.9,-,N/A,,Clear,220,2012-11-13 20:54:00
2:54 PM,35.1,27.0,72,30.17,10.0,SW,10.4,-,N/A,,Clear,230,2012-11-13 21:54:00
3:54 PM,33.1,25.0,72,30.18,10.0,SW,5.8,-,N/A,,Clear,230,2012-11-13 22:54:00
4:54 PM,34.0,24.1,67,30.16,10.0,WSW,16.1,-,N/A,,Clear,240,2012-11-13 23:54:00
5:54 PM,32.0,24.1,73,30.17,10.0,SW,15.0,-,N/A,,Clear,230,2012-11-14 00:54:00
6:54 PM,34.0,24.1,67,30.15,10.0,SW,15.0,-,N/A,,Clear,220,2012-11-14 01:54:00
7:54 PM,30.9,23.0,72,30.16,10.0,SW,16.1,-,N/A,,Clear,230,2012-11-14 02:54:00
8:54 PM,33.1,23.0,66,30.15,10.0,WSW,17.3,-,N/A,,Clear,240,2012-11-14 03:54:00
9:54 PM,30.0,21.9,72,30.16,10.0,SW,13.8,-,N/A,,Clear,220,2012-11-14 04:54:00
10:54 PM,30.9,21.9,69,30.13,10.0,SW,12.7,-,N/A,,Clear,230,2012-11-14 05:54:00
11:54 PM,28.0,19.0,69,30.14,10.0,WSW,10.4,-,N/A,,Clear,240,2012-11-14 06:54:00